Time;durP1;ratioP1;P1;durP2;ratioP2;P2;SDS_P1;SDS_P2;PMS_P1;PMS_P2;Temp;Humidity;BMP_temperature;BMP_pressure;BME280_temperature;BME280_humidity;BME280_pressure;Samples;Min_cycle;Max_cycle;Signal;HPM_P1;HPM_P2
2022/01/03 00:00:41;;;;;;;8.57;5.68;;;;;;;2.91;100.00;91208.13;5011268;28;20030;-65
2022/01/03 00:03:09;;;;;;;8.20;5.60;;;;;;;2.87;100.00;91195.75;5004266;28;20026;-66
2022/01/03 00:05:35;;;;;;;7.22;5.90;;;;;;;2.95;100.00;91198.69;4991830;28;20062;-66
2022/01/03 00:08:02;;;;;;;10.48;6.75;;;;;;;3.08;100.00;91192.19;4989841;28;20577;-66
2022/01/03 00:10:28;;;;;;;9.73;7.53;;;;;;;3.24;100.00;91191.19;4991540;28;20034;-65
2022/01/03 00:12:53;;;;;;;11.82;7.13;;;;;;;3.32;100.00;91184.66;4990330;28;20026;-65
2022/01/03 00:15:19;;;;;;;12.32;7.60;;;;;;;3.32;100.00;91182.03;4991722;28;20026;-65
2022/01/03 00:17:49;;;;;;;11.70;7.18;;;;;;;3.46;100.00;91182.31;4991721;28;20029;-65
2022/01/03 00:20:15;;;;;;;10.60;6.55;;;;;;;3.53;100.00;91188.13;4991636;28;20030;-65
2022/01/03 00:22:48;;;;;;;7.78;5.50;;;;;;;3.44;100.00;91174.69;4991687;28;20754;-65
2022/01/03 00:25:19;;;;;;;8.63;5.65;;;;;;;3.38;100.00;91175.72;4991688;28;20109;-64
2022/01/03 00:27:50;;;;;;;7.65;5.60;;;;;;;3.25;100.00;91171.75;4991570;28;20522;-64
2022/01/03 00:30:21;;;;;;;8.75;6.10;;;;;;;3.07;100.00;91168.78;4991600;28;20121;-64
2022/01/03 00:32:50;;;;;;;7.97;6.47;;;;;;;2.86;100.00;91165.28;4991415;28;20026;-64
2022/01/03 00:35:16;;;;;;;10.85;6.68;;;;;;;2.72;100.00;91161.53;4991563;28;20109;-64
2022/01/03 00:37:45;;;;;;;9.77;6.38;;;;;;;2.56;100.00;91166.72;4991578;28;20041;-64
2022/01/03 00:40:15;;;;;;;15.45;7.10;;;;;;;2.55;100.00;91159.88;4991377;28;20034;-64
2022/01/03 00:42:40;;;;;;;12.82;7.55;;;;;;;2.57;100.00;91159.63;4991598;28;20093;-64
2022/01/03 00:45:07;;;;;;;10.70;6.75;;;;;;;2.62;100.00;91155.19;4991178;28;20038;-64
2022/01/03 00:47:34;;;;;;;15.27;8.95;;;;;;;2.52;100.00;91147.22;4991176;28;20050;-64
2022/01/03 00:50:06;;;;;;;14.15;8.40;;;;;;;2.42;100.00;91154.28;4991356;28;20113;-64
2022/01/03 00:52:32;;;;;;;11.10;7.07;;;;;;;2.44;100.00;91150.34;4991298;28;20406;-64
2022/01/03 00:54:57;;;;;;;9.57;7.03;;;;;;;2.43;100.00;91146.16;4991400;28;20027;-64
2022/01/03 00:57:54;;;;;;;8.73;6.10;;;;;;;2.54;100.00;91144.38;4991442;28;20061;-64
2022/01/03 01:00:20;;;;;;;10.35;7.55;;;;;;;2.51;100.00;91135.16;4984443;28;20069;-64
2022/01/03 01:02:50;;;;;;;9.15;6.88;;;;;;;2.52;100.00;91128.84;4995065;28;20034;-64
2022/01/03 01:05:19;;;;;;;7.93;6.40;;;;;;;2.53;100.00;91138.34;4995300;28;20030;-65
2022/01/03 01:07:46;;;;;;;7.03;5.40;;;;;;;2.59;100.00;91129.44;4994068;28;20487;-64
2022/01/03 01:10:13;;;;;;;7.10;4.85;;;;;;;2.71;100.00;91129.22;4994919;28;20073;-64
2022/01/03 01:12:40;;;;;;;7.30;5.55;;;;;;;2.78;100.00;91126.34;4994879;28;20034;-64
2022/01/03 01:15:06;;;;;;;8.85;6.50;;;;;;;2.77;100.00;91124.78;4994905;28;20037;-64
2022/01/03 01:17:33;;;;;;;8.10;6.38;;;;;;;2.67;100.00;91120.25;4994876;28;20034;-64
2022/01/03 01:19:59;;;;;;;9.13;6.47;;;;;;;2.66;100.00;91116.06;4994678;28;20500;-64
2022/01/03 01:22:24;;;;;;;6.88;5.78;;;;;;;2.88;100.00;91105.38;4994640;28;20102;-64
2022/01/03 01:25:11;;;;;;;9.07;5.63;;;;;;;3.03;100.00;91115.94;4994723;28;20058;-64
2022/01/03 01:30:17;;;;;;;8.23;6.13;;;;;;;3.20;100.00;91111.28;4994637;28;20413;-64
2022/01/03 01:32:48;;;;;;;7.38;5.95;;;;;;;3.19;100.00;91104.44;4994505;28;20531;-63
2022/01/03 01:35:14;;;;;;;9.07;6.18;;;;;;;2.93;100.00;91079.13;4994549;28;20472;-63
2022/01/03 01:37:42;;;;;;;8.43;5.50;;;;;;;3.02;100.00;91100.44;4994499;28;20034;-63
2022/01/03 01:40:08;;;;;;;11.10;6.75;;;;;;;3.06;100.00;91091.78;4994286;28;20054;-63
2022/01/03 01:42:41;;;;;;;15.23;8.90;;;;;;;3.13;100.00;91079.16;4994255;28;20513;-63
2022/01/03 01:45:09;;;;;;;14.85;9.23;;;;;;;3.09;100.00;91075.47;4994346;28;20033;-63
2022/01/03 01:47:38;;;;;;;9.73;6.30;;;;;;;3.11;100.00;91070.75;4994108;28;20113;-63
2022/01/03 01:50:05;;;;;;;12.30;7.45;;;;;;;3.29;100.00;91067.63;4994448;28;20408;-63
2022/01/03 01:52:35;;;;;;;9.85;6.10;;;;;;;3.43;100.00;91059.22;4994089;28;20058;-63
2022/01/03 01:55:07;;;;;;;9.50;6.95;;;;;;;3.52;100.00;91068.19;4994177;28;20030;-63
2022/01/03 01:57:51;;;;;;;8.25;6.60;;;;;;;3.56;100.00;91063.97;4994165;28;20034;-63
2022/01/03 02:00:17;;;;;;;10.48;7.18;;;;;;;3.43;100.00;91056.59;4993937;28;20030;-63
2022/01/03 02:02:43;;;;;;;17.17;10.73;;;;;;;3.40;100.00;91071.06;4993905;28;20034;-63
2022/01/03 02:05:18;;;;;;;14.25;9.10;;;;;;;3.33;100.00;91067.91;4994009;28;20030;-63
2022/01/03 02:07:49;;;;;;;9.65;6.00;;;;;;;3.35;100.00;91065.81;4993942;28;20120;-63
2022/01/03 02:10:15;;;;;;;8.88;5.70;;;;;;;3.39;100.00;91048.47;4993683;28;20113;-63
2022/01/03 02:12:43;;;;;;;18.73;10.18;;;;;;;3.34;100.00;91029.28;4993791;28;20057;-63
2022/01/03 02:15:15;;;;;;;26.50;13.73;;;;;;;3.44;100.00;91040.56;4993816;28;20037;-63
2022/01/03 02:17:44;;;;;;;12.00;8.25;;;;;;;3.44;100.00;91052.91;4994051;28;20401;-63
2022/01/03 02:20:15;;;;;;;10.05;6.03;;;;;;;3.44;100.00;91045.81;4993571;28;20037;-63
2022/01/03 02:22:43;;;;;;;8.95;6.50;;;;;;;3.45;100.00;91043.97;4993768;28;20034;-63
2022/01/03 02:25:11;;;;;;;7.30;5.50;;;;;;;3.53;100.00;91046.09;4993587;28;20030;-63
2022/01/03 02:27:38;;;;;;;7.57;5.60;;;;;;;3.67;100.00;91034.00;4993542;28;20504;-62
2022/01/03 02:30:06;;;;;;;6.97;5.00;;;;;;;3.70;100.00;91046.63;4993751;28;20027;-62
2022/01/03 02:32:32;;;;;;;7.22;5.88;;;;;;;3.63;100.00;91040.84;4993423;28;20034;-62
2022/01/03 02:34:57;;;;;;;9.80;6.80;;;;;;;3.55;100.00;91057.16;4993425;28;20030;-63
2022/01/03 02:37:23;;;;;;;11.38;6.47;;;;;;;3.56;100.00;91074.50;4993322;28;20042;-63
2022/01/03 02:39:51;;;;;;;9.18;5.25;;;;;;;3.67;100.00;91073.47;4993276;28;20030;-63
2022/01/03 02:42:20;;;;;;;8.15;5.93;;;;;;;3.70;100.00;91067.66;4993139;28;20092;-63
2022/01/03 02:44:46;;;;;;;21.95;13.75;;;;;;;3.60;100.00;91073.72;4993203;28;20404;-63
2022/01/03 02:47:12;;;;;;;10.98;7.75;;;;;;;3.64;100.00;91076.63;4993012;28;20520;-63
2022/01/03 02:49:37;;;;;;;10.75;6.38;;;;;;;3.85;100.00;91069.50;4993097;28;20030;-63
2022/01/03 02:52:03;;;;;;;9.68;5.50;;;;;;;3.83;100.00;91069.78;4992900;28;20049;-63
2022/01/03 02:54:28;;;;;;;7.97;5.22;;;;;;;3.67;100.00;91077.94;4993034;28;20045;-63
2022/01/03 02:56:56;;;;;;;9.35;6.95;;;;;;;3.69;100.00;91076.63;4992993;28;20034;-63
2022/01/03 02:59:22;;;;;;;6.20;5.53;;;;;;;3.66;100.00;91040.31;4992855;28;20026;-62
2022/01/03 03:01:48;;;;;;;6.28;5.60;;;;;;;3.76;100.00;91050.81;4992807;28;20034;-62
2022/01/03 03:06:44;;;;;;;8.32;6.57;;;;;;;3.54;100.00;91056.34;4990800;28;20113;-69
2022/01/03 03:09:12;;;;;;;8.07;6.05;;;;;;;3.51;100.00;91050.84;4992520;28;20034;-69
2022/01/03 03:11:38;;;;;;;6.93;5.93;;;;;;;3.46;100.00;91045.56;4992442;28;20500;-69
2022/01/03 03:14:04;;;;;;;9.55;7.00;;;;;;;3.57;100.00;91034.00;4992482;28;20034;-68
2022/01/03 03:16:30;;;;;;;9.80;6.82;;;;;;;3.45;100.00;91020.31;4992288;28;20469;-69
2022/01/03 03:18:55;;;;;;;7.93;4.10;;;;;;;3.53;100.00;91025.06;4992392;28;20049;-68
2022/01/03 03:21:21;;;;;;;3.85;2.83;;;;;;;3.67;100.00;91025.31;4991788;28;20022;-69
2022/01/03 03:23:46;;;;;;;3.13;2.80;;;;;;;3.78;100.00;91022.41;4992321;28;20041;-70
2022/01/03 03:26:12;;;;;;;3.20;2.85;;;;;;;3.81;100.00;91021.88;4992147;28;20038;-69
2022/01/03 03:28:38;;;;;;;3.17;2.63;;;;;;;3.85;100.00;91022.13;4992229;28;20064;-70
2022/01/03 03:31:04;;;;;;;4.28;2.85;;;;;;;3.89;100.00;91026.59;4992259;28;20053;-68
2022/01/03 03:33:32;;;;;;;3.83;2.60;;;;;;;3.73;100.00;91024.25;4992215;28;20088;-69
2022/01/03 03:35:59;;;;;;;2.78;2.25;;;;;;;3.46;100.00;91019.25;4992324;28;20105;-70
2022/01/03 03:38:25;;;;;;;3.08;2.15;;;;;;;3.12;100.00;91027.66;4992059;28;20062;-70
2022/01/03 03:40:55;;;;;;;2.97;2.03;;;;;;;2.86;100.00;91026.03;4992057;28;20023;-69
2022/01/03 03:43:21;;;;;;;4.32;2.63;;;;;;;2.70;100.00;91039.13;4990686;28;20030;-69
2022/01/03 03:45:48;;;;;;;9.75;5.53;;;;;;;2.44;100.00;91002.53;4991898;28;20026;-69
2022/01/03 03:48:14;;;;;;;11.48;7.05;;;;;;;2.50;100.00;91022.50;4991850;28;20034;-70
2022/01/03 03:50:40;;;;;;;9.60;6.07;;;;;;;2.50;100.00;91028.53;4991825;28;20511;-69
2022/01/03 03:53:06;;;;;;;8.55;5.32;;;;;;;2.70;100.00;91018.13;4991859;28;20034;-70
2022/01/03 03:55:32;;;;;;;9.70;6.07;;;;;;;2.72;100.00;91028.38;4991742;28;20037;-69
2022/01/03 03:57:58;;;;;;;9.68;7.65;;;;;;;2.95;100.00;91019.22;4991738;28;20041;-68
2022/01/03 04:00:24;;;;;;;11.02;7.07;;;;;;;3.05;100.00;91029.75;4991759;28;20038;-69
2022/01/03 04:02:50;;;;;;;9.15;6.47;;;;;;;3.15;100.00;91027.13;4991740;28;20089;-68
2022/01/03 04:05:15;;;;;;;8.18;6.22;;;;;;;3.32;100.00;91021.66;4991463;28;20159;-68
2022/01/03 04:07:41;;;;;;;10.68;5.97;;;;;;;3.50;100.00;91018.50;4991699;28;20054;-67
2022/01/03 04:10:09;;;;;;;20.92;11.88;;;;;;;3.61;100.00;91019.25;4991615;28;20034;-70
2022/01/03 04:12:34;;;;;;;9.02;7.32;;;;;;;3.80;100.00;91025.56;4991657;28;20034;-70
2022/01/03 04:15:00;;;;;;;8.55;6.78;;;;;;;3.86;100.00;91021.88;4991569;28;20112;-69
2022/01/03 04:17:25;;;;;;;9.10;6.10;;;;;;;3.94;100.00;91023.16;4991677;28;20109;-69
2022/01/03 04:19:51;;;;;;;8.57;6.43;;;;;;;4.04;100.00;91027.63;4991663;28;20026;-69
2022/01/03 04:22:16;;;;;;;6.20;4.85;;;;;;;4.04;100.00;91033.69;4991565;28;20415;-69
2022/01/03 04:24:42;;;;;;;7.40;5.22;;;;;;;4.13;100.00;91028.69;4991516;28;20130;-70
2022/01/03 04:27:07;;;;;;;7.05;4.90;;;;;;;4.20;100.00;91024.69;4991568;28;20023;-69
2022/01/03 04:29:33;;;;;;;6.90;4.97;;;;;;;4.32;100.00;91013.88;4991480;28;20042;-70
2022/01/03 04:31:58;;;;;;;7.22;5.45;;;;;;;4.25;100.00;91016.00;4990139;28;20034;-69
2022/01/03 04:34:24;;;;;;;54.25;25.38;;;;;;;4.24;100.00;91019.69;4993764;28;20073;-69
2022/01/03 04:36:50;;;;;;;12.70;7.22;;;;;;;4.21;100.00;91017.59;4995445;28;20105;-69
2022/01/03 04:39:15;;;;;;;9.45;7.38;;;;;;;4.16;100.00;91020.25;4995386;28;20074;-69
2022/01/03 04:41:41;;;;;;;10.02;6.40;;;;;;;4.08;100.00;91016.28;4995274;28;20033;-68
2022/01/03 04:44:06;;;;;;;8.25;6.47;;;;;;;4.14;100.00;91023.16;4995161;28;20045;-69
2022/01/03 04:46:33;;;;;;;9.82;7.35;;;;;;;4.12;100.00;91022.63;4995213;28;20050;-68
2022/01/03 04:48:59;;;;;;;8.40;5.93;;;;;;;4.15;100.00;91018.66;4995198;28;20388;-69
2022/01/03 04:51:25;;;;;;;6.68;4.90;;;;;;;4.20;100.00;91027.34;4995363;28;20026;-69
2022/01/03 04:53:50;;;;;;;6.57;5.07;;;;;;;4.15;100.00;91030.00;4995077;28;20034;-69
2022/01/03 04:56:16;;;;;;;5.55;4.28;;;;;;;4.13;100.00;91020.78;4994930;28;20510;-69
2022/01/03 04:58:42;;;;;;;8.75;5.65;;;;;;;4.15;100.00;91016.03;4995072;28;20034;-69
2022/01/03 05:01:08;;;;;;;6.97;5.03;;;;;;;4.25;100.00;91016.00;4995017;28;20080;-68
2022/01/03 05:03:34;;;;;;;6.63;5.10;;;;;;;4.39;100.00;91019.63;4995062;28;20049;-69
2022/01/03 05:06:01;;;;;;;17.05;9.57;;;;;;;4.43;100.00;91012.00;4994697;28;20089;-68
2022/01/03 05:08:29;;;;;;;8.45;6.50;;;;;;;4.49;100.00;91019.59;4994807;28;20030;-69
2022/01/03 05:10:55;;;;;;;8.73;6.32;;;;;;;4.41;100.00;91025.41;4994758;28;20030;-69
2022/01/03 05:13:20;;;;;;;8.63;6.20;;;;;;;4.35;100.00;91018.59;4994775;28;20022;-68
2022/01/03 05:15:46;;;;;;;8.73;6.55;;;;;;;4.32;100.00;91011.25;4994630;28;20030;-69
2022/01/03 05:18:12;;;;;;;8.32;5.97;;;;;;;4.33;100.00;91012.03;4994667;28;20034;-68
2022/01/03 05:20:37;;;;;;;12.82;9.25;;;;;;;4.12;100.00;91016.56;4994652;28;20393;-69
2022/01/03 05:23:03;;;;;;;11.10;7.97;;;;;;;4.05;100.00;91029.22;4994566;28;20038;-69
2022/01/03 05:25:28;;;;;;;18.50;10.95;;;;;;;4.01;100.00;91023.69;4994387;28;20096;-69
2022/01/03 05:27:54;;;;;;;22.38;13.02;;;;;;;3.87;100.00;91026.09;4994745;28;20046;-69
2022/01/03 05:30:20;;;;;;;24.75;15.38;;;;;;;3.93;100.00;91032.13;4994297;28;20113;-69
2022/01/03 05:32:46;;;;;;;20.33;15.07;;;;;;;4.04;100.00;91031.06;4994444;28;20022;-68
2022/01/03 05:35:11;;;;;;;7.85;6.45;;;;;;;4.01;100.00;91030.81;4994221;28;20413;-68
2022/01/03 05:37:37;;;;;;;10.70;6.07;;;;;;;3.99;100.00;91051.34;4994334;28;20399;-69
2022/01/03 05:40:04;;;;;;;13.55;8.60;;;;;;;3.85;100.00;91040.56;4994196;28;20543;-68
2022/01/03 05:42:29;;;;;;;15.80;11.50;;;;;;;3.79;100.00;91047.69;4994157;28;20085;-69
2022/01/03 05:44:55;;;;;;;17.05;10.93;;;;;;;3.81;100.00;91037.69;4993596;28;20100;-68
2022/01/03 05:47:21;;;;;;;9.02;6.75;;;;;;;3.84;100.00;91029.25;4994134;28;20034;-69
2022/01/03 05:49:46;;;;;;;11.25;8.30;;;;;;;3.85;100.00;91041.34;4994055;28;20506;-69
2022/01/03 05:52:12;;;;;;;7.20;5.85;;;;;;;3.88;100.00;91032.13;4994055;28;20034;-69
2022/01/03 05:54:37;;;;;;;8.43;6.40;;;;;;;3.94;100.00;91033.69;4993913;28;20093;-68
2022/01/03 05:57:03;;;;;;;12.23;9.13;;;;;;;3.97;100.00;91041.09;4994018;28;20062;-68
2022/01/03 05:59:28;;;;;;;16.75;10.15;;;;;;;4.10;100.00;91034.44;4993940;28;20071;-68
2022/01/03 06:01:55;;;;;;;27.42;17.52;;;;;;;4.15;100.00;91045.00;4993934;28;20113;-68
2022/01/03 06:04:35;;;;;;;20.73;13.07;;;;;;;4.17;100.00;91045.50;4993668;28;20030;-68
2022/01/03 06:07:07;;;;;;;17.45;10.63;;;;;;;4.14;100.00;91040.78;4993737;28;20129;-68
2022/01/03 06:09:33;;;;;;;35.38;19.13;;;;;;;4.02;100.00;91054.22;4993953;28;20045;-68
2022/01/03 06:11:58;;;;;;;28.38;17.83;;;;;;;4.01;100.00;91039.50;4993682;28;20034;-68
2022/01/03 06:14:24;;;;;;;13.23;7.30;;;;;;;4.18;100.00;91049.72;4993536;28;20501;-67
2022/01/03 06:16:50;;;;;;;9.32;6.40;;;;;;;4.35;100.00;91044.16;4993597;28;20057;-69
2022/01/03 06:19:16;;;;;;;7.28;4.97;;;;;;;4.39;94.51;91043.34;4993471;28;20034;-68
2022/01/03 06:21:43;;;;;;;9.55;6.38;;;;;;;4.53;90.29;91050.69;4993466;28;20035;-68
2022/01/03 06:24:09;;;;;;;12.10;7.68;;;;;;;4.56;88.50;91048.28;4993374;28;20041;-68
2022/01/03 06:26:41;;;;;;;14.38;10.23;;;;;;;4.49;89.29;91045.94;4993385;28;20034;-68
2022/01/03 06:29:07;;;;;;;17.38;10.55;;;;;;;4.19;91.99;91046.81;4993341;28;20142;-68
2022/01/03 06:31:33;;;;;;;10.27;6.45;;;;;;;4.17;91.82;91050.78;4993292;28;20053;-68
2022/01/03 06:33:58;;;;;;;11.95;8.07;;;;;;;4.16;91.47;91054.47;4993174;28;20484;-68
2022/01/03 06:36:24;;;;;;;11.98;7.82;;;;;;;4.21;91.46;91063.13;4991835;28;20082;-68
2022/01/03 06:38:50;;;;;;;11.02;7.28;;;;;;;4.25;91.23;91052.84;4993165;28;20473;-68
2022/01/03 06:41:15;;;;;;;12.38;7.18;;;;;;;3.94;94.70;91046.84;4993123;28;20038;-68
2022/01/03 06:43:41;;;;;;;17.67;9.00;;;;;;;3.72;97.99;91046.34;4993044;28;20053;-68
2022/01/03 06:46:07;;;;;;;28.38;17.00;;;;;;;3.73;99.51;91042.66;4992927;28;20044;-68
2022/01/03 06:48:32;;;;;;;46.22;26.88;;;;;;;3.63;100.00;91032.13;4992980;28;20036;-68
2022/01/03 06:50:58;;;;;;;38.75;21.55;;;;;;;3.60;100.00;91049.25;4992882;28;20034;-68
2022/01/03 06:53:23;;;;;;;39.45;21.63;;;;;;;3.55;100.00;91050.03;4993067;28;20033;-68
2022/01/03 06:55:49;;;;;;;47.67;28.02;;;;;;;3.44;100.00;91052.91;4991987;28;20057;-68
2022/01/03 06:58:14;;;;;;;47.10;24.27;;;;;;;3.40;100.00;91026.38;4992656;28;20523;-68
2022/01/03 07:00:40;;;;;;;46.03;25.17;;;;;;;3.71;100.00;91042.94;4992816;28;20042;-68
2022/01/03 07:03:06;;;;;;;38.05;22.90;;;;;;;3.80;100.00;91054.53;4992707;28;20110;-68
2022/01/03 07:05:32;;;;;;;44.50;26.30;;;;;;;3.77;100.00;91052.41;4992408;28;20423;-68
2022/01/03 07:07:59;;;;;;;42.33;24.67;;;;;;;3.87;100.00;91068.19;4992649;28;20026;-69
2022/01/03 07:10:24;;;;;;;36.10;21.25;;;;;;;3.86;100.00;91048.19;4992515;28;20050;-69
2022/01/03 07:12:52;;;;;;;47.50;27.17;;;;;;;4.01;99.63;91047.38;4992573;28;20441;-68
2022/01/03 07:20:46;;;;;;;20.20;12.68;;;;;;;4.70;100.00;91040.59;4992673;28;20037;-68
2022/01/03 07:23:13;;;;;;;35.67;22.40;;;;;;;5.25;100.00;91038.75;4992400;28;20027;-68
2022/01/03 07:25:38;;;;;;;33.20;20.98;;;;;;;6.28;96.96;91035.03;4992261;28;20078;-68
2022/01/03 07:28:04;;;;;;;18.83;13.02;;;;;;;8.66;75.80;91032.75;4992293;28;20069;-69
2022/01/03 07:30:30;;;;;;;24.80;16.75;;;;;;;10.66;65.59;91041.34;4992161;28;20109;-69
2022/01/03 07:32:55;;;;;;;29.98;19.70;;;;;;;13.23;54.54;91041.00;4992234;28;20444;-68
2022/01/03 07:35:22;;;;;;;35.40;22.67;;;;;;;13.49;51.41;91039.00;4992105;28;20026;-68
2022/01/03 07:37:48;;;;;;;36.58;24.05;;;;;;;14.22;49.71;91037.88;4992338;28;20443;-69
2022/01/03 07:40:13;;;;;;;23.88;16.95;;;;;;;13.88;49.82;91037.00;4991573;28;20030;-69
2022/01/03 07:42:40;;;;;;;30.50;17.73;;;;;;;12.24;52.18;91021.63;4991890;28;20038;-69
2022/01/03 07:45:07;;;;;;;24.85;17.65;;;;;;;10.69;56.70;91038.06;4991825;28;20030;-69
2022/01/03 07:47:32;;;;;;;28.05;20.25;;;;;;;9.96;58.29;91034.03;4991900;28;20109;-69
2022/01/03 07:49:59;;;;;;;29.48;20.40;;;;;;;8.92;60.98;91033.84;4991922;28;20530;-69
2022/01/03 07:52:24;;;;;;;25.23;16.10;;;;;;;8.95;63.48;91027.16;4992033;28;20019;-69
2022/01/03 07:54:52;;;;;;;14.73;9.27;;;;;;;12.26;58.77;91025.53;4990658;28;20096;-68
2022/01/03 07:57:18;;;;;;;21.90;16.60;;;;;;;15.15;51.88;91031.94;4991896;28;20034;-69
2022/01/03 07:59:45;;;;;;;27.23;15.15;;;;;;;16.92;46.29;91035.66;4991984;28;20092;-69
2022/01/03 08:02:11;;;;;;;14.88;10.82;;;;;;;18.04;44.69;91029.16;4991760;28;20037;-69
2022/01/03 08:04:37;;;;;;;12.27;7.38;;;;;;;19.35;42.76;91020.97;4991588;28;20074;-69
2022/01/03 08:07:03;;;;;;;11.55;9.20;;;;;;;20.00;40.62;91028.22;4991596;28;20038;-69
2022/01/03 08:09:29;;;;;;;6.00;5.45;;;;;;;19.63;40.83;91033.41;4991701;28;20432;-68
2022/01/03 08:11:54;;;;;;;10.65;7.70;;;;;;;21.26;39.58;91025.97;4991777;28;20045;-68
2022/01/03 08:14:20;;;;;;;17.27;12.60;;;;;;;21.94;38.33;91038.22;4991561;28;20568;-68
2022/01/03 08:16:46;;;;;;;18.17;13.38;;;;;;;21.72;37.89;91046.13;4991780;28;20594;-69
2022/01/03 08:19:11;;;;;;;15.45;10.68;;;;;;;21.94;37.00;91038.22;4991779;28;20038;-68
2022/01/03 08:21:37;;;;;;;15.32;12.65;;;;;;;21.53;37.89;91038.22;4991641;28;20531;-69
2022/01/03 08:24:03;;;;;;;11.48;9.82;;;;;;;22.91;35.68;91035.75;4982016;28;20066;-69
2022/01/03 08:26:29;;;;;;;98.35;70.13;;;;;;;22.49;35.88;91024.66;4989963;28;20042;-69
2022/01/03 08:28:54;;;;;;;37.38;27.27;;;;;;;20.71;38.28;91031.91;4991307;28;20467;-68
2022/01/03 08:31:22;;;;;;;23.13;18.08;;;;;;;19.64;39.83;91021.47;4990799;28;20045;-68
2022/01/03 08:33:47;;;;;;;15.38;11.88;;;;;;;18.01;43.00;91019.88;4991211;28;20034;-70
2022/01/03 08:36:13;;;;;;;9.55;8.43;;;;;;;19.44;41.25;91021.53;4991215;28;20112;-69
2022/01/03 08:38:39;;;;;;;12.57;8.35;;;;;;;21.88;37.66;91007.97;4990818;28;20077;-69
2022/01/03 08:41:05;;;;;;;22.27;13.52;;;;;;;23.94;34.95;91032.50;4989995;28;20131;-71
2022/01/03 08:43:31;;;;;;;9.82;8.20;;;;;;;24.71;33.83;91038.28;4991186;28;20416;-68
2022/01/03 08:45:57;;;;;;;9.50;8.30;;;;;;;24.87;32.61;91035.13;4991038;28;20030;-69
2022/01/03 08:48:22;;;;;;;7.78;5.22;;;;;;;23.07;34.18;91024.56;4991234;28;20117;-70
2022/01/03 08:50:48;;;;;;;4.47;3.05;;;;;;;20.56;37.18;91028.25;4990760;28;20152;-69
2022/01/03 08:53:13;;;;;;;8.40;4.82;;;;;;;20.46;37.89;91022.69;4990815;28;20408;-70
2022/01/03 08:55:40;;;;;;;13.48;9.77;;;;;;;22.00;37.08;91015.03;4989623;28;20065;-70
2022/01/03 08:58:06;;;;;;;5.50;4.57;;;;;;;20.99;38.13;91014.44;4991110;28;20558;-70
2022/01/03 09:00:31;;;;;;;6.95;4.55;;;;;;;21.81;36.81;91010.63;4991028;28;20040;-70
2022/01/03 09:02:57;;;;;;;6.20;3.90;;;;;;;21.76;37.43;91003.63;4990991;28;20038;-70
2022/01/03 09:05:23;;;;;;;6.68;5.63;;;;;;;22.12;36.27;91001.22;4990834;28;20046;-69
2022/01/03 09:07:48;;;;;;;11.00;6.80;;;;;;;24.22;33.97;91006.47;4990743;28;20480;-69
2022/01/03 09:10:14;;;;;;;22.13;14.50;;;;;;;24.52;33.07;91011.53;4991002;28;20046;-69
2022/01/03 09:12:40;;;;;;;10.25;7.05;;;;;;;24.08;34.58;90997.16;4991033;28;20034;-67
2022/01/03 09:15:06;;;;;;;6.70;5.97;;;;;;;24.97;33.30;91001.66;5005936;28;20057;-71
2022/01/03 09:17:31;;;;;;;4.68;3.45;;;;;;;23.76;33.87;90980.88;4991015;28;20088;-69
2022/01/03 09:19:57;;;;;;;5.35;4.25;;;;;;;24.36;33.93;90982.81;4992445;28;20038;-69
2022/01/03 09:22:29;;;;;;;12.27;8.85;;;;;;;24.05;33.56;90968.06;4994145;28;20042;-69
2022/01/03 09:28:49;;;;;;;67.00;47.65;;;;;;;19.87;39.48;90960.13;4994477;28;20034;-70
2022/01/03 09:30:24;;;;;;;7.35;5.63;;;;;;;20.85;38.23;90948.25;4994249;28;20416;-69
2022/01/03 09:32:50;;;;;;;8.07;4.15;;;;;;;21.85;36.41;90953.78;4994412;28;20046;-69
2022/01/03 09:35:16;;;;;;;7.65;5.80;;;;;;;23.05;34.59;90947.44;4994288;28;20046;-69
2022/01/03 09:37:42;;;;;;;14.48;10.68;;;;;;;25.19;33.28;90958.78;4993713;28;20485;-71
2022/01/03 09:40:08;;;;;;;8.00;4.22;;;;;;;23.33;33.91;90949.38;4993931;28;20129;-68
2022/01/03 09:42:34;;;;;;;7.53;5.43;;;;;;;23.69;32.88;90947.53;4993859;28;20121;-69
2022/01/03 09:45:11;;;;;;;10.25;7.00;;;;;;;22.95;33.67;90928.00;4993884;28;20038;-70
2022/01/03 09:47:39;;;;;;;14.75;9.82;;;;;;;23.27;33.64;90921.84;4994038;28;20074;-70
2022/01/03 09:50:06;;;;;;;5.38;3.80;;;;;;;23.93;32.22;90908.69;4993791;28;20519;-70
2022/01/03 09:52:33;;;;;;;8.18;4.53;;;;;;;23.43;32.75;90913.34;4993478;28;20077;-70
2022/01/03 09:55:00;;;;;;;5.88;4.50;;;;;;;21.62;34.71;90911.47;4993867;28;20034;-70
2022/01/03 09:57:28;;;;;;;5.30;3.63;;;;;;;20.30;35.22;90896.66;4993747;28;20046;-70
2022/01/03 09:59:54;;;;;;;5.30;3.17;;;;;;;19.62;36.84;90907.72;4993854;28;20136;-70
2022/01/03 10:02:21;;;;;;;3.33;2.95;;;;;;;21.31;35.11;90901.19;4993837;28;20112;-70
2022/01/03 10:04:48;;;;;;;3.33;2.95;;;;;;;22.23;34.20;90892.88;4991723;28;20072;-69
2022/01/03 10:07:14;;;;;;;10.80;3.92;;;;;;;22.21;34.23;90884.34;4993109;28;20085;-70
2022/01/03 10:09:42;;;;;;;39.80;29.30;;;;;;;23.68;33.83;90886.22;4993543;28;20034;-69
2022/01/03 10:12:13;;;;;;;3.90;2.25;;;;;;;24.49;30.66;90882.53;4993096;28;20428;-70
2022/01/03 10:14:39;;;;;;;12.05;3.50;;;;;;;23.52;31.66;90873.00;4993303;28;20046;-69
2022/01/03 10:17:05;;;;;;;5.70;2.88;;;;;;;24.85;30.94;90874.19;5008517;28;20084;-70
2022/01/03 10:19:31;;;;;;;9.15;4.75;;;;;;;25.08;30.90;90877.19;4993466;28;20066;-71
2022/01/03 10:21:56;;;;;;;8.27;3.30;;;;;;;23.96;30.38;90867.13;4992822;28;20449;-69
2022/01/03 10:24:36;;;;;;;4.75;1.88;;;;;;;24.11;29.96;90852.34;4993361;28;20104;-69
2022/01/03 10:27:02;;;;;;;2.55;2.10;;;;;;;24.61;29.68;90849.44;4993168;28;20050;-69
2022/01/03 10:29:33;;;;;;;7.97;2.33;;;;;;;23.35;30.37;90858.25;4993214;28;20050;-71
2022/01/03 10:32:01;;;;;;;1.83;1.50;;;;;;;20.05;32.84;90841.56;4993235;28;20130;-69
2022/01/03 10:34:27;;;;;;;2.53;1.55;;;;;;;18.82;34.63;90839.44;4993037;28;20034;-70
2022/01/03 10:36:56;;;;;;;2.10;1.70;;;;;;;18.62;33.62;90830.63;4992980;28;20593;-69
2022/01/03 10:39:30;;;;;;;2.10;1.75;;;;;;;19.30;33.81;90835.16;4991108;28;20090;-69
2022/01/03 10:42:15;;;;;;;9.07;5.43;;;;;;;19.49;32.59;90825.41;4984131;28;20412;-69
2022/01/03 10:44:41;;;;;;;7.22;1.90;;;;;;;19.05;33.34;90812.44;4989935;28;20048;-69
2022/01/03 10:47:13;;;;;;;12.75;2.20;;;;;;;18.05;35.38;90826.13;4992782;28;20049;-69
2022/01/03 10:49:40;;;;;;;7.45;2.20;;;;;;;17.42;36.33;90819.09;4992453;28;20050;-68
2022/01/03 10:52:15;;;;;;;15.13;2.13;;;;;;;16.79;36.66;90816.53;4992526;28;20058;-69
2022/01/03 10:54:42;;;;;;;31.27;3.72;;;;;;;16.20;39.52;90809.31;4992561;28;20038;-69
2022/01/03 10:57:08;;;;;;;10.32;2.25;;;;;;;15.85;41.25;90801.91;4992667;28;20129;-69
2022/01/03 10:59:35;;;;;;;6.53;2.58;;;;;;;15.56;42.44;90789.63;4992480;28;20561;-68
2022/01/03 11:02:10;;;;;;;6.82;2.40;;;;;;;15.08;42.22;90776.38;4992408;28;20039;-68
2022/01/03 11:04:51;;;;;;;27.90;13.35;;;;;;;14.75;42.52;90776.56;4988449;28;20046;-68
2022/01/03 11:13:19;;;;;;;7.07;2.90;;;;;;;15.25;41.13;90758.13;4973579;28;20105;-69
2022/01/03 11:15:51;;;;;;;41.15;5.57;;;;;;;17.56;38.90;90762.91;4986612;28;20133;-72
2022/01/03 11:18:28;;;;;;;6.38;2.63;;;;;;;19.23;35.26;90762.22;4989273;28;20051;-68
2022/01/03 11:21:12;;;;;;;6.55;2.60;;;;;;;17.33;37.58;90752.06;4977315;28;20510;-69
2022/01/03 11:23:38;;;;;;;;;;;;;;;16.61;38.58;90751.66;4973143;28;20429;-68
2022/01/03 11:26:09;;;;;;;21.70;4.43;;;;;;;16.03;39.64;90751.41;4972851;28;19920;-70
2022/01/03 11:28:35;;;;;;;25.50;5.60;;;;;;;15.72;40.18;90748.69;4972828;28;20042;-70
2022/01/03 11:31:02;;;;;;;9.38;5.47;;;;;;;15.49;40.40;90740.41;4987528;28;20512;-70
2022/01/03 11:33:29;;;;;;;25.05;3.40;;;;;;;15.33;41.78;90739.59;4972509;28;20141;-69
2022/01/03 11:35:57;;;;;;;9.43;3.58;;;;;;;15.56;41.09;90737.91;4972258;28;20101;-67
2022/01/03 11:38:30;;;;;;;16.60;3.53;;;;;;;15.65;40.89;90727.06;4972187;28;20555;-70
2022/01/03 11:41:00;;;;;;;12.10;3.35;;;;;;;15.53;41.04;90730.53;4981858;28;20126;-69
2022/01/03 11:43:27;;;;;;;12.98;3.42;;;;;;;15.74;40.94;90730.34;4982036;28;20039;-67
2022/01/03 11:45:53;;;;;;;4.25;3.42;;;;;;;15.88;40.27;90731.47;4975261;28;20066;-69
2022/01/03 11:48:19;;;;;;;17.85;8.75;;;;;;;15.98;40.20;90726.75;4977595;28;20042;-69